Airfield :
LOGIN :

Register | Disclaimer

   EN    FR    IT 

 










Legend :    VFR   Marginal VFR   IFR   Intensive IFR   Very Intensive IFR
Visi :
Ceiling :
>= 8 km
>= 3000ft
5 to 8 km
1000 to 3000 ft
1500m to 5 km
500 to 1000 ft
800 to 1500m
200 to 500 ft
< 800m
< 200 ft
Symbols :   Thunderstorms  Fog  Heavy snow  Heavy precipitations  Wind > 20 kt
SIGMETs :     Misc.  Thunderstorms  Icing  Turbulence  Mountain Waves  Volcanic Ashes







- Airport Elevation : 526 ft
- IATA code : LTN
- Download approach charts


EGGW - London Luton

CURRENT METAR :
  • 172020Z 32010KT CAVOK 01/M03 Q1017

EXPIRED METARs :
  • 171950Z AUTO 32009KT 9999 NCD 01/M04 Q1017
  • 171920Z AUTO 33009KT 9999 NCD 01/M04 Q1017
  • 171850Z AUTO 31010KT 9999 NCD 01/M03 Q1017
  • 171820Z AUTO 30010KT 9999 NCD 01/M03 Q1017
  • 171750Z AUTO 30010KT 9999 NCD 01/M03 Q1016

TAF TAF EGGW
Valid from the 17 at 18:00 until the 18 at 18:00 UTC


171658Z 1718/1818 31012KT 9999 FEW030
BECMG 1723/1802 22005KT
PROB30 1803/1810 6000
BECMG 1809/1812 14010KT
ATIS : +44 1582 395 204
No reported NOTAMs for that airfield.



MET'MAP, your aeronautical weather chart ! - Copyright ORBIFLY December 2007 - Disclaimer

ORBIFLY MET'MAP TEAM :

Programming & Development : Alexandra Zaïnal
Concept & Development : Baudouin d'Aumeries
Co-Development & Prog : Marc-Olivier Méhu
Technical & hardware support : Manuel Goepfert

Contact : metmap@orbifly.com




SOURCES & CREDITS :

   NOAA